sensor_id;sensor_type;location;lat;lon;timestamp;pressure;altitude;pressure_sealevel;temperature;humidity
65010;BME280;51556;50.002;22.014;2023-08-24T00:00:49;99434.43;;;20.08;75.43
65010;BME280;51556;50.002;22.014;2023-08-24T00:03:15;99437.05;;;20.06;75.38
65010;BME280;51556;50.002;22.014;2023-08-24T00:05:40;99430.60;;;20.04;75.42
65010;BME280;51556;50.002;22.014;2023-08-24T00:08:07;99425.65;;;19.97;75.59
65010;BME280;51556;50.002;22.014;2023-08-24T00:10:34;99422.39;;;19.95;75.74
65010;BME280;51556;50.002;22.014;2023-08-24T00:13:00;99427.14;;;19.94;75.85
65010;BME280;51556;50.002;22.014;2023-08-24T00:15:26;99431.52;;;19.92;75.75
65010;BME280;51556;50.002;22.014;2023-08-24T00:17:51;99432.65;;;19.91;75.75
65010;BME280;51556;50.002;22.014;2023-08-24T00:20:17;99434.16;;;19.90;75.85
65010;BME280;51556;50.002;22.014;2023-08-24T00:22:42;99429.67;;;19.84;75.82
65010;BME280;51556;50.002;22.014;2023-08-24T00:25:09;99433.27;;;19.78;76.16
65010;BME280;51556;50.002;22.014;2023-08-24T00:27:35;99434.48;;;19.76;76.20
65010;BME280;51556;50.002;22.014;2023-08-24T00:30:06;99432.65;;;19.77;76.37
65010;BME280;51556;50.002;22.014;2023-08-24T00:32:34;99437.48;;;19.77;76.38
65010;BME280;51556;50.002;22.014;2023-08-24T00:35:07;99437.48;;;19.74;76.50
65010;BME280;51556;50.002;22.014;2023-08-24T00:37:34;99436.63;;;19.73;76.50
65010;BME280;51556;50.002;22.014;2023-08-24T00:40:00;99436.86;;;19.72;76.45
65010;BME280;51556;50.002;22.014;2023-08-24T00:42:26;99439.54;;;19.72;76.42
65010;BME280;51556;50.002;22.014;2023-08-24T00:44:52;99441.55;;;19.71;76.32
65010;BME280;51556;50.002;22.014;2023-08-24T00:47:17;99436.81;;;19.70;76.34
65010;BME280;51556;50.002;22.014;2023-08-24T00:49:43;99440.34;;;19.71;76.39
65010;BME280;51556;50.002;22.014;2023-08-24T00:52:09;99442.14;;;19.70;76.51
65010;BME280;51556;50.002;22.014;2023-08-24T00:54:36;99444.77;;;19.69;76.26
65010;BME280;51556;50.002;22.014;2023-08-24T00:57:02;99445.53;;;19.68;76.29
65010;BME280;51556;50.002;22.014;2023-08-24T00:59:27;99446.77;;;19.68;76.22
65010;BME280;51556;50.002;22.014;2023-08-24T01:01:53;99442.66;;;19.65;76.27
65010;BME280;51556;50.002;22.014;2023-08-24T01:04:19;99434.16;;;19.64;76.32
65010;BME280;51556;50.002;22.014;2023-08-24T01:06:45;99440.45;;;19.64;76.19
65010;BME280;51556;50.002;22.014;2023-08-24T01:09:10;99436.49;;;19.64;76.31
65010;BME280;51556;50.002;22.014;2023-08-24T01:15:17;99441.79;;;19.59;76.36
65010;BME280;51556;50.002;22.014;2023-08-24T01:17:43;99438.44;;;19.59;76.28
65010;BME280;51556;50.002;22.014;2023-08-24T01:20:09;99436.34;;;19.55;76.18
65010;BME280;51556;50.002;22.014;2023-08-24T01:22:58;99434.60;;;19.51;76.48
65010;BME280;51556;50.002;22.014;2023-08-24T01:27:58;99430.73;;;19.47;76.66
65010;BME280;51556;50.002;22.014;2023-08-24T01:30:25;99434.19;;;19.46;76.75
65010;BME280;51556;50.002;22.014;2023-08-24T01:32:51;99432.09;;;19.42;76.75
65010;BME280;51556;50.002;22.014;2023-08-24T01:35:17;99434.91;;;19.36;76.93
65010;BME280;51556;50.002;22.014;2023-08-24T01:37:42;99431.27;;;19.34;77.01
65010;BME280;51556;50.002;22.014;2023-08-24T01:40:17;99430.71;;;19.32;77.16
65010;BME280;51556;50.002;22.014;2023-08-24T01:42:59;99428.52;;;19.30;77.17
65010;BME280;51556;50.002;22.014;2023-08-24T01:45:28;99429.77;;;19.27;77.31
65010;BME280;51556;50.002;22.014;2023-08-24T01:47:55;99432.21;;;19.22;77.19
65010;BME280;51556;50.002;22.014;2023-08-24T01:50:22;99431.41;;;19.18;77.57
65010;BME280;51556;50.002;22.014;2023-08-24T01:52:49;99428.58;;;19.15;77.41
65010;BME280;51556;50.002;22.014;2023-08-24T01:55:18;99430.29;;;19.10;77.67
65010;BME280;51556;50.002;22.014;2023-08-24T01:57:43;99432.77;;;19.07;77.77
65010;BME280;51556;50.002;22.014;2023-08-24T02:00:09;99433.41;;;19.08;78.06
65010;BME280;51556;50.002;22.014;2023-08-24T02:02:35;99430.78;;;19.08;78.18
65010;BME280;51556;50.002;22.014;2023-08-24T02:05:01;99425.52;;;19.06;78.11
65010;BME280;51556;50.002;22.014;2023-08-24T02:07:28;99431.15;;;19.04;78.28
65010;BME280;51556;50.002;22.014;2023-08-24T02:09:53;99429.64;;;19.05;78.41
65010;BME280;51556;50.002;22.014;2023-08-24T02:12:18;99425.52;;;19.03;78.39
65010;BME280;51556;50.002;22.014;2023-08-24T02:14:44;99423.45;;;18.98;78.43
65010;BME280;51556;50.002;22.014;2023-08-24T02:17:09;99419.88;;;18.99;78.70
65010;BME280;51556;50.002;22.014;2023-08-24T02:19:34;99421.16;;;19.01;78.53
65010;BME280;51556;50.002;22.014;2023-08-24T02:22:00;99419.69;;;19.02;78.47
65010;BME280;51556;50.002;22.014;2023-08-24T02:24:25;99420.98;;;18.98;78.34
65010;BME280;51556;50.002;22.014;2023-08-24T02:26:51;99420.37;;;18.96;78.48
65010;BME280;51556;50.002;22.014;2023-08-24T02:29:16;99424.19;;;18.95;78.48
65010;BME280;51556;50.002;22.014;2023-08-24T02:31:41;99420.29;;;18.95;78.44
65010;BME280;51556;50.002;22.014;2023-08-24T02:34:07;99416.43;;;18.94;78.55
65010;BME280;51556;50.002;22.014;2023-08-24T02:36:32;99419.09;;;18.92;78.47
65010;BME280;51556;50.002;22.014;2023-08-24T02:38:59;99418.54;;;18.89;78.65
65010;BME280;51556;50.002;22.014;2023-08-24T02:41:25;99416.96;;;18.91;78.59
65010;BME280;51556;50.002;22.014;2023-08-24T02:43:51;99417.12;;;18.92;78.65
65010;BME280;51556;50.002;22.014;2023-08-24T02:46:16;99412.02;;;18.93;78.74
65010;BME280;51556;50.002;22.014;2023-08-24T02:48:43;99411.89;;;18.95;78.56
65010;BME280;51556;50.002;22.014;2023-08-24T02:51:09;99410.54;;;18.97;78.35
65010;BME280;51556;50.002;22.014;2023-08-24T02:53:35;99410.24;;;18.96;78.42
65010;BME280;51556;50.002;22.014;2023-08-24T02:56:00;99412.65;;;18.94;78.31
65010;BME280;51556;50.002;22.014;2023-08-24T02:58:26;99410.58;;;18.96;78.18
65010;BME280;51556;50.002;22.014;2023-08-24T03:00:52;99410.98;;;18.95;77.95
65010;BME280;51556;50.002;22.014;2023-08-24T03:03:18;99413.67;;;18.92;77.76
65010;BME280;51556;50.002;22.014;2023-08-24T03:06:01;99420.54;;;18.88;77.63
65010;BME280;51556;50.002;22.014;2023-08-24T03:08:29;99423.20;;;18.82;77.66
65010;BME280;51556;50.002;22.014;2023-08-24T03:10:55;99425.92;;;18.78;77.78
65010;BME280;51556;50.002;22.014;2023-08-24T03:13:21;99431.83;;;18.78;77.71
65010;BME280;51556;50.002;22.014;2023-08-24T03:15:46;99428.23;;;18.75;77.65
65010;BME280;51556;50.002;22.014;2023-08-24T03:18:13;99429.70;;;18.75;77.64
65010;BME280;51556;50.002;22.014;2023-08-24T03:20:39;99427.48;;;18.73;77.55
65010;BME280;51556;50.002;22.014;2023-08-24T03:23:05;99428.30;;;18.71;77.71
65010;BME280;51556;50.002;22.014;2023-08-24T03:25:35;99428.70;;;18.70;77.77
65010;BME280;51556;50.002;22.014;2023-08-24T03:28:02;99433.77;;;18.68;77.74
65010;BME280;51556;50.002;22.014;2023-08-24T03:30:27;99429.94;;;18.67;77.80
65010;BME280;51556;50.002;22.014;2023-08-24T03:32:53;99433.11;;;18.64;77.74
65010;BME280;51556;50.002;22.014;2023-08-24T03:35:18;99431.66;;;18.62;77.60
65010;BME280;51556;50.002;22.014;2023-08-24T03:37:43;99433.77;;;18.62;77.73
65010;BME280;51556;50.002;22.014;2023-08-24T03:40:09;99436.42;;;18.66;77.73
65010;BME280;51556;50.002;22.014;2023-08-24T03:42:34;99438.24;;;18.68;77.64
65010;BME280;51556;50.002;22.014;2023-08-24T03:45:00;99438.53;;;18.69;77.74
65010;BME280;51556;50.002;22.014;2023-08-24T03:47:25;99436.77;;;18.66;77.84
65010;BME280;51556;50.002;22.014;2023-08-24T03:49:51;99435.09;;;18.64;77.79
65010;BME280;51556;50.002;22.014;2023-08-24T03:52:16;99437.84;;;18.56;78.06
65010;BME280;51556;50.002;22.014;2023-08-24T03:54:42;99437.91;;;18.49;78.16
65010;BME280;51556;50.002;22.014;2023-08-24T03:57:07;99437.07;;;18.42;78.52
65010;BME280;51556;50.002;22.014;2023-08-24T03:59:33;99432.34;;;18.37;78.68
65010;BME280;51556;50.002;22.014;2023-08-24T04:01:58;99434.82;;;18.37;78.82
65010;BME280;51556;50.002;22.014;2023-08-24T04:04:27;99437.23;;;18.39;78.92
65010;BME280;51556;50.002;22.014;2023-08-24T04:06:52;99438.98;;;18.36;78.85
65010;BME280;51556;50.002;22.014;2023-08-24T04:09:18;99431.84;;;18.36;78.86
65010;BME280;51556;50.002;22.014;2023-08-24T04:11:43;99435.71;;;18.37;78.75
65010;BME280;51556;50.002;22.014;2023-08-24T04:14:09;99430.29;;;18.36;78.72
65010;BME280;51556;50.002;22.014;2023-08-24T04:16:34;99427.15;;;18.37;78.85
65010;BME280;51556;50.002;22.014;2023-08-24T04:19:00;99431.88;;;18.39;78.74
65010;BME280;51556;50.002;22.014;2023-08-24T04:21:25;99433.25;;;18.40;78.71
65010;BME280;51556;50.002;22.014;2023-08-24T04:23:51;99430.67;;;18.42;78.69
65010;BME280;51556;50.002;22.014;2023-08-24T04:26:16;99432.64;;;18.41;78.60
65010;BME280;51556;50.002;22.014;2023-08-24T04:28:41;99429.39;;;18.42;78.62
65010;BME280;51556;50.002;22.014;2023-08-24T04:31:07;99423.88;;;18.42;78.64
65010;BME280;51556;50.002;22.014;2023-08-24T04:33:32;99423.79;;;18.44;78.62
65010;BME280;51556;50.002;22.014;2023-08-24T04:35:58;99427.61;;;18.45;78.81
65010;BME280;51556;50.002;22.014;2023-08-24T04:38:23;99431.98;;;18.47;79.03
65010;BME280;51556;50.002;22.014;2023-08-24T04:40:54;99436.43;;;18.47;79.28
65010;BME280;51556;50.002;22.014;2023-08-24T04:43:22;99438.48;;;18.48;79.42
65010;BME280;51556;50.002;22.014;2023-08-24T04:45:52;99441.77;;;18.50;79.53
65010;BME280;51556;50.002;22.014;2023-08-24T04:48:22;99444.61;;;18.54;79.83
65010;BME280;51556;50.002;22.014;2023-08-24T04:50:48;99448.56;;;18.56;79.68
65010;BME280;51556;50.002;22.014;2023-08-24T04:53:16;99444.56;;;18.60;79.58
65010;BME280;51556;50.002;22.014;2023-08-24T04:55:43;99437.81;;;18.60;79.45
65010;BME280;51556;50.002;22.014;2023-08-24T04:58:09;99440.61;;;18.61;79.47
65010;BME280;51556;50.002;22.014;2023-08-24T05:00:36;99436.59;;;18.63;79.43
65010;BME280;51556;50.002;22.014;2023-08-24T05:03:02;99437.77;;;18.67;79.40
65010;BME280;51556;50.002;22.014;2023-08-24T05:05:29;99434.80;;;18.66;79.43
65010;BME280;51556;50.002;22.014;2023-08-24T05:07:55;99436.24;;;18.69;79.54
65010;BME280;51556;50.002;22.014;2023-08-24T05:10:21;99439.19;;;18.74;79.75
65010;BME280;51556;50.002;22.014;2023-08-24T05:12:47;99441.21;;;18.79;79.82
65010;BME280;51556;50.002;22.014;2023-08-24T05:15:12;99444.23;;;18.85;79.72
65010;BME280;51556;50.002;22.014;2023-08-24T05:17:41;99451.66;;;18.90;79.62
65010;BME280;51556;50.002;22.014;2023-08-24T05:20:08;99457.65;;;18.91;79.71
65010;BME280;51556;50.002;22.014;2023-08-24T05:22:36;99458.48;;;18.95;79.86
65010;BME280;51556;50.002;22.014;2023-08-24T05:25:01;99461.63;;;18.99;79.77
65010;BME280;51556;50.002;22.014;2023-08-24T05:27:27;99463.05;;;19.05;79.76
65010;BME280;51556;50.002;22.014;2023-08-24T05:29:52;99466.14;;;19.10;79.89
65010;BME280;51556;50.002;22.014;2023-08-24T05:32:17;99470.61;;;19.13;79.73
65010;BME280;51556;50.002;22.014;2023-08-24T05:34:45;99467.75;;;19.10;79.71
65010;BME280;51556;50.002;22.014;2023-08-24T05:37:11;99467.69;;;19.11;79.88
65010;BME280;51556;50.002;22.014;2023-08-24T05:39:36;99468.79;;;19.13;79.95
65010;BME280;51556;50.002;22.014;2023-08-24T05:42:02;99471.41;;;19.17;79.98
65010;BME280;51556;50.002;22.014;2023-08-24T05:44:27;99472.64;;;19.24;79.96
65010;BME280;51556;50.002;22.014;2023-08-24T05:46:52;99469.21;;;19.27;79.88
65010;BME280;51556;50.002;22.014;2023-08-24T05:49:18;99465.13;;;19.32;79.91
65010;BME280;51556;50.002;22.014;2023-08-24T05:51:43;99462.88;;;19.38;79.70
65010;BME280;51556;50.002;22.014;2023-08-24T05:54:09;99463.95;;;19.44;79.75
65010;BME280;51556;50.002;22.014;2023-08-24T05:56:34;99465.07;;;19.46;79.46
65010;BME280;51556;50.002;22.014;2023-08-24T05:59:00;99464.67;;;19.47;79.70
65010;BME280;51556;50.002;22.014;2023-08-24T06:01:25;99462.98;;;19.51;79.48
65010;BME280;51556;50.002;22.014;2023-08-24T06:03:51;99467.52;;;19.56;79.55
65010;BME280;51556;50.002;22.014;2023-08-24T06:06:16;99465.62;;;19.64;79.67
65010;BME280;51556;50.002;22.014;2023-08-24T06:08:42;99463.39;;;19.74;79.52
65010;BME280;51556;50.002;22.014;2023-08-24T06:11:08;99458.46;;;19.81;79.31
65010;BME280;51556;50.002;22.014;2023-08-24T06:13:33;99457.94;;;19.90;79.22
65010;BME280;51556;50.002;22.014;2023-08-24T06:15:59;99456.80;;;19.99;78.95
65010;BME280;51556;50.002;22.014;2023-08-24T06:18:24;99458.48;;;20.07;78.52
65010;BME280;51556;50.002;22.014;2023-08-24T06:20:50;99455.63;;;20.12;78.28
65010;BME280;51556;50.002;22.014;2023-08-24T06:23:19;99450.63;;;20.15;78.19
65010;BME280;51556;50.002;22.014;2023-08-24T06:25:47;99449.59;;;20.17;77.89
65010;BME280;51556;50.002;22.014;2023-08-24T06:28:12;99449.13;;;20.21;77.98
65010;BME280;51556;50.002;22.014;2023-08-24T06:30:42;99447.83;;;20.25;77.76
65010;BME280;51556;50.002;22.014;2023-08-24T06:33:08;99446.71;;;20.31;77.60
65010;BME280;51556;50.002;22.014;2023-08-24T06:35:36;99446.41;;;20.36;77.41
65010;BME280;51556;50.002;22.014;2023-08-24T06:38:02;99448.90;;;20.42;77.29
65010;BME280;51556;50.002;22.014;2023-08-24T06:40:28;99447.44;;;20.51;77.16
65010;BME280;51556;50.002;22.014;2023-08-24T06:42:54;99449.46;;;20.58;77.01
65010;BME280;51556;50.002;22.014;2023-08-24T06:45:19;99445.23;;;20.65;76.85
65010;BME280;51556;50.002;22.014;2023-08-24T06:47:45;99444.58;;;20.70;76.61
65010;BME280;51556;50.002;22.014;2023-08-24T06:50:11;99441.05;;;20.69;76.59
65010;BME280;51556;50.002;22.014;2023-08-24T06:52:36;99442.48;;;20.75;76.50
65010;BME280;51556;50.002;22.014;2023-08-24T06:55:02;99441.17;;;20.79;76.12
65010;BME280;51556;50.002;22.014;2023-08-24T06:57:28;99442.70;;;20.85;76.14
65010;BME280;51556;50.002;22.014;2023-08-24T06:59:54;99446.53;;;20.89;75.69
65010;BME280;51556;50.002;22.014;2023-08-24T07:02:19;99447.27;;;20.94;75.38
65010;BME280;51556;50.002;22.014;2023-08-24T07:04:44;99452.39;;;21.03;75.25
65010;BME280;51556;50.002;22.014;2023-08-24T07:07:10;99451.70;;;21.11;74.89
65010;BME280;51556;50.002;22.014;2023-08-24T07:09:36;99453.34;;;21.16;74.48
65010;BME280;51556;50.002;22.014;2023-08-24T07:12:02;99446.98;;;21.19;74.01
65010;BME280;51556;50.002;22.014;2023-08-24T07:14:28;99448.41;;;21.25;73.73
65010;BME280;51556;50.002;22.014;2023-08-24T07:16:53;99451.55;;;21.34;73.72
65010;BME280;51556;50.002;22.014;2023-08-24T07:19:19;99454.35;;;21.43;73.60
65010;BME280;51556;50.002;22.014;2023-08-24T07:21:44;99453.34;;;21.52;73.49
65010;BME280;51556;50.002;22.014;2023-08-24T07:24:10;99452.41;;;21.61;73.15
65010;BME280;51556;50.002;22.014;2023-08-24T07:26:36;99453.58;;;21.64;72.95
65010;BME280;51556;50.002;22.014;2023-08-24T07:29:01;99459.44;;;21.73;73.24
65010;BME280;51556;50.002;22.014;2023-08-24T07:31:26;99465.98;;;21.82;72.97
65010;BME280;51556;50.002;22.014;2023-08-24T07:33:52;99463.79;;;21.90;72.65
65010;BME280;51556;50.002;22.014;2023-08-24T07:36:17;99463.25;;;22.03;72.45
65010;BME280;51556;50.002;22.014;2023-08-24T07:38:45;99460.54;;;22.14;72.02
65010;BME280;51556;50.002;22.014;2023-08-24T07:41:11;99462.25;;;22.27;71.81
65010;BME280;51556;50.002;22.014;2023-08-24T07:43:37;99461.21;;;22.39;71.08
65010;BME280;51556;50.002;22.014;2023-08-24T07:46:03;99460.00;;;22.46;70.23
65010;BME280;51556;50.002;22.014;2023-08-24T07:48:29;99466.10;;;22.50;69.58
65010;BME280;51556;50.002;22.014;2023-08-24T07:50:55;99470.09;;;22.55;68.70
65010;BME280;51556;50.002;22.014;2023-08-24T07:53:20;99473.08;;;22.60;68.57
65010;BME280;51556;50.002;22.014;2023-08-24T07:55:46;99469.28;;;22.68;68.43
65010;BME280;51556;50.002;22.014;2023-08-24T07:58:12;99470.65;;;22.71;67.87
65010;BME280;51556;50.002;22.014;2023-08-24T08:00:37;99467.63;;;22.76;67.74
65010;BME280;51556;50.002;22.014;2023-08-24T08:03:03;99472.39;;;22.80;67.52
65010;BME280;51556;50.002;22.014;2023-08-24T08:05:28;99470.52;;;22.88;67.25
65010;BME280;51556;50.002;22.014;2023-08-24T08:07:54;99467.29;;;22.95;66.21
65010;BME280;51556;50.002;22.014;2023-08-24T08:10:19;99468.95;;;22.99;65.13
65010;BME280;51556;50.002;22.014;2023-08-24T08:12:46;99469.98;;;23.05;64.60
65010;BME280;51556;50.002;22.014;2023-08-24T08:15:12;99474.37;;;23.11;64.43
65010;BME280;51556;50.002;22.014;2023-08-24T08:17:38;99474.95;;;23.17;64.38
65010;BME280;51556;50.002;22.014;2023-08-24T08:20:04;99472.66;;;23.26;64.10
65010;BME280;51556;50.002;22.014;2023-08-24T08:22:29;99471.39;;;23.31;63.06
65010;BME280;51556;50.002;22.014;2023-08-24T08:24:54;99466.84;;;23.37;63.42
65010;BME280;51556;50.002;22.014;2023-08-24T08:27:22;99469.11;;;23.44;63.78
65010;BME280;51556;50.002;22.014;2023-08-24T08:29:48;99469.29;;;23.51;62.17
65010;BME280;51556;50.002;22.014;2023-08-24T08:32:13;99469.11;;;23.56;60.68
65010;BME280;51556;50.002;22.014;2023-08-24T08:34:39;99466.80;;;23.63;60.90
65010;BME280;51556;50.002;22.014;2023-08-24T08:37:04;99468.84;;;23.74;61.59
65010;BME280;51556;50.002;22.014;2023-08-24T08:39:30;99472.89;;;23.83;60.98
65010;BME280;51556;50.002;22.014;2023-08-24T08:41:55;99467.84;;;23.93;60.29
65010;BME280;51556;50.002;22.014;2023-08-24T08:44:21;99473.70;;;23.98;58.64
65010;BME280;51556;50.002;22.014;2023-08-24T08:46:49;99475.07;;;24.02;58.64
65010;BME280;51556;50.002;22.014;2023-08-24T08:49:16;99470.48;;;24.08;58.45
65010;BME280;51556;50.002;22.014;2023-08-24T08:51:41;99475.18;;;24.14;57.90
65010;BME280;51556;50.002;22.014;2023-08-24T08:54:08;99474.66;;;24.18;57.70
65010;BME280;51556;50.002;22.014;2023-08-24T08:56:33;99472.87;;;24.22;57.10
65010;BME280;51556;50.002;22.014;2023-08-24T08:58:59;99474.88;;;24.24;56.73
65010;BME280;51556;50.002;22.014;2023-08-24T09:01:26;99472.33;;;24.20;55.83
65010;BME280;51556;50.002;22.014;2023-08-24T09:03:53;99469.63;;;24.20;55.96
65010;BME280;51556;50.002;22.014;2023-08-24T09:06:19;99465.27;;;24.28;56.56
65010;BME280;51556;50.002;22.014;2023-08-24T09:08:45;99461.02;;;24.36;55.49
65010;BME280;51556;50.002;22.014;2023-08-24T09:11:10;99460.15;;;24.44;54.45
65010;BME280;51556;50.002;22.014;2023-08-24T09:13:36;99453.60;;;24.50;53.91
65010;BME280;51556;50.002;22.014;2023-08-24T09:16:08;99452.27;;;24.55;53.81
65010;BME280;51556;50.002;22.014;2023-08-24T09:18:38;99450.38;;;24.62;54.54
65010;BME280;51556;50.002;22.014;2023-08-24T09:21:11;99449.50;;;24.73;53.89
65010;BME280;51556;50.002;22.014;2023-08-24T09:23:45;99442.29;;;24.82;53.56
65010;BME280;51556;50.002;22.014;2023-08-24T09:26:13;99444.87;;;24.94;53.44
65010;BME280;51556;50.002;22.014;2023-08-24T09:28:42;99446.13;;;25.10;54.16
65010;BME280;51556;50.002;22.014;2023-08-24T09:31:09;99444.40;;;25.25;54.23
65010;BME280;51556;50.002;22.014;2023-08-24T09:33:35;99444.17;;;25.34;53.30
65010;BME280;51556;50.002;22.014;2023-08-24T09:36:01;99441.62;;;25.41;53.71
65010;BME280;51556;50.002;22.014;2023-08-24T09:38:27;99437.60;;;25.44;52.07
65010;BME280;51556;50.002;22.014;2023-08-24T09:40:55;99438.21;;;25.39;51.82
65010;BME280;51556;50.002;22.014;2023-08-24T09:43:21;99439.46;;;25.32;51.81
65010;BME280;51556;50.002;22.014;2023-08-24T09:45:56;99441.16;;;25.31;51.84
65010;BME280;51556;50.002;22.014;2023-08-24T09:48:22;99446.10;;;25.32;51.22
65010;BME280;51556;50.002;22.014;2023-08-24T09:50:51;99441.30;;;25.37;49.65
65010;BME280;51556;50.002;22.014;2023-08-24T09:53:22;99439.98;;;25.43;49.91
65010;BME280;51556;50.002;22.014;2023-08-24T09:55:55;99439.20;;;25.49;49.55
65010;BME280;51556;50.002;22.014;2023-08-24T09:58:24;99433.19;;;25.59;50.18
65010;BME280;51556;50.002;22.014;2023-08-24T10:00:50;99425.69;;;25.73;50.26
65010;BME280;51556;50.002;22.014;2023-08-24T10:03:18;99428.85;;;25.91;49.30
65010;BME280;51556;50.002;22.014;2023-08-24T10:05:49;99427.48;;;26.04;49.58
65010;BME280;51556;50.002;22.014;2023-08-24T10:08:17;99424.87;;;26.19;49.44
65010;BME280;51556;50.002;22.014;2023-08-24T10:10:45;99428.23;;;26.35;48.14
65010;BME280;51556;50.002;22.014;2023-08-24T10:13:18;99427.91;;;26.44;47.17
65010;BME280;51556;50.002;22.014;2023-08-24T10:15:47;99432.43;;;26.58;47.05
65010;BME280;51556;50.002;22.014;2023-08-24T10:18:15;99434.20;;;26.64;45.74
65010;BME280;51556;50.002;22.014;2023-08-24T10:20:42;99430.70;;;26.67;46.06
65010;BME280;51556;50.002;22.014;2023-08-24T10:23:12;99434.46;;;26.71;46.59
65010;BME280;51556;50.002;22.014;2023-08-24T10:25:40;99436.08;;;26.83;46.41
65010;BME280;51556;50.002;22.014;2023-08-24T10:28:07;99437.84;;;26.97;46.20
65010;BME280;51556;50.002;22.014;2023-08-24T10:30:34;99441.67;;;27.09;43.88
65010;BME280;51556;50.002;22.014;2023-08-24T10:33:00;99442.02;;;27.16;43.45
65010;BME280;51556;50.002;22.014;2023-08-24T10:35:27;99432.30;;;27.26;43.23
65010;BME280;51556;50.002;22.014;2023-08-24T10:37:53;99428.51;;;27.36;43.48
65010;BME280;51556;50.002;22.014;2023-08-24T10:40:36;99425.58;;;27.49;43.26
65010;BME280;51556;50.002;22.014;2023-08-24T10:43:05;99424.31;;;27.67;43.81
65010;BME280;51556;50.002;22.014;2023-08-24T10:46:03;99426.71;;;27.83;43.76
65010;BME280;51556;50.002;22.014;2023-08-24T10:53:55;99422.11;;;27.87;43.35
65010;BME280;51556;50.002;22.014;2023-08-24T10:56:21;99414.77;;;27.76;42.14
65010;BME280;51556;50.002;22.014;2023-08-24T10:58:47;99415.73;;;27.71;42.56
65010;BME280;51556;50.002;22.014;2023-08-24T11:01:32;99413.34;;;27.81;43.02
65010;BME280;51556;50.002;22.014;2023-08-24T11:03:58;99407.50;;;27.94;43.13
65010;BME280;51556;50.002;22.014;2023-08-24T11:06:25;99399.24;;;28.09;42.41
65010;BME280;51556;50.002;22.014;2023-08-24T11:09:06;99395.39;;;28.24;43.75
65010;BME280;51556;50.002;22.014;2023-08-24T11:11:34;99396.28;;;28.42;42.99
65010;BME280;51556;50.002;22.014;2023-08-24T11:14:19;99396.42;;;28.57;41.61
65010;BME280;51556;50.002;22.014;2023-08-24T11:16:48;99390.55;;;28.65;41.10
65010;BME280;51556;50.002;22.014;2023-08-24T11:19:15;99386.70;;;28.77;41.02
65010;BME280;51556;50.002;22.014;2023-08-24T11:21:41;99392.09;;;28.85;38.17
65010;BME280;51556;50.002;22.014;2023-08-24T11:24:15;99390.14;;;28.86;39.29
65010;BME280;51556;50.002;22.014;2023-08-24T11:26:47;99390.24;;;28.94;39.65
65010;BME280;51556;50.002;22.014;2023-08-24T11:29:14;99386.70;;;29.02;38.54
65010;BME280;51556;50.002;22.014;2023-08-24T11:31:41;99385.53;;;29.01;38.32
65010;BME280;51556;50.002;22.014;2023-08-24T11:34:07;99383.48;;;29.07;39.28
65010;BME280;51556;50.002;22.014;2023-08-24T11:36:46;99384.44;;;29.17;38.93
65010;BME280;51556;50.002;22.014;2023-08-24T11:39:20;99386.02;;;29.08;37.77
65010;BME280;51556;50.002;22.014;2023-08-24T11:42:06;99385.36;;;29.08;37.47
65010;BME280;51556;50.002;22.014;2023-08-24T11:45:00;99390.61;;;29.13;37.11
65010;BME280;51556;50.002;22.014;2023-08-24T11:47:26;99386.97;;;29.12;37.11
65010;BME280;51556;50.002;22.014;2023-08-24T11:49:51;99387.45;;;29.16;35.47
65010;BME280;51556;50.002;22.014;2023-08-24T11:52:17;99384.71;;;29.14;34.49
65010;BME280;51556;50.002;22.014;2023-08-24T11:54:42;99379.17;;;29.11;35.39
65010;BME280;51556;50.002;22.014;2023-08-24T11:57:08;99375.41;;;29.23;36.52
65010;BME280;51556;50.002;22.014;2023-08-24T11:59:35;99376.96;;;29.42;35.93
65010;BME280;51556;50.002;22.014;2023-08-24T12:02:02;99369.84;;;29.55;37.15
65010;BME280;51556;50.002;22.014;2023-08-24T12:04:27;99364.57;;;29.72;37.61
65010;BME280;51556;50.002;22.014;2023-08-24T12:06:53;99367.11;;;29.89;37.19
65010;BME280;51556;50.002;22.014;2023-08-24T12:09:18;99363.45;;;30.00;36.24
65010;BME280;51556;50.002;22.014;2023-08-24T12:11:44;99362.39;;;30.02;35.99
65010;BME280;51556;50.002;22.014;2023-08-24T12:14:17;99358.56;;;30.04;35.52
65010;BME280;51556;50.002;22.014;2023-08-24T12:16:42;99356.30;;;30.17;36.81
65010;BME280;51556;50.002;22.014;2023-08-24T12:19:08;99349.98;;;30.34;36.97
65010;BME280;51556;50.002;22.014;2023-08-24T12:21:33;99354.55;;;30.44;35.27
65010;BME280;51556;50.002;22.014;2023-08-24T12:24:04;99352.60;;;30.43;33.86
65010;BME280;51556;50.002;22.014;2023-08-24T12:26:35;99355.05;;;30.42;34.68
65010;BME280;51556;50.002;22.014;2023-08-24T12:29:08;99353.65;;;30.47;34.69
65010;BME280;51556;50.002;22.014;2023-08-24T12:31:35;99352.21;;;30.59;35.35
65010;BME280;51556;50.002;22.014;2023-08-24T12:34:05;99350.77;;;30.75;36.94
65010;BME280;51556;50.002;22.014;2023-08-24T12:36:32;99344.53;;;30.92;36.53
65010;BME280;51556;50.002;22.014;2023-08-24T12:38:58;99341.70;;;30.88;33.85
65010;BME280;51556;50.002;22.014;2023-08-24T12:41:24;99346.64;;;30.81;35.18
65010;BME280;51556;50.002;22.014;2023-08-24T12:43:50;99352.06;;;30.77;34.99
65010;BME280;51556;50.002;22.014;2023-08-24T12:46:16;99357.56;;;30.68;34.98
65010;BME280;51556;50.002;22.014;2023-08-24T12:48:42;99353.44;;;30.66;35.57
65010;BME280;51556;50.002;22.014;2023-08-24T12:51:07;99357.03;;;30.75;35.80
65010;BME280;51556;50.002;22.014;2023-08-24T12:53:33;99355.65;;;30.84;34.52
65010;BME280;51556;50.002;22.014;2023-08-24T12:55:58;99352.60;;;30.90;34.75
65010;BME280;51556;50.002;22.014;2023-08-24T12:58:24;99345.70;;;31.01;35.55
65010;BME280;51556;50.002;22.014;2023-08-24T13:00:50;99344.60;;;31.13;34.70